Aérodrome :
LOGIN :

S'inscrire | Disclaimer

   EN    FR    IT 

 










Légende :    VFR   VFR Marginal   IFR   IFR Intensif   IFR Très Intensif
Visi : 
Plafond : 
>= 8 km
>= 3000ft
5 à 8 km
1000 à 3000 ft
1500m à 5 km
500 à 1000 ft
800 à 1500m
200 à 500 ft
< 800m
< 200 ft
Symboles :   Orages  Brouillard  Fortes neiges  Fortes précipitations  Vent > 20 kt
SIGMETs :   Divers  Orages  Givrage  Turbulence  Onde Orograph.  Cendres Volcan.







- Altitude de l'aérodrome : 18 ft


LIPC - Cervia AFB Ravenna

DERNIER METAR :
  • 182255Z 33003KT 3000 BR NSC 13/11 Q1016 RMK SKC VIS MIN 3000 WIND THR11 32003KT WIND THR29 32003KT YLO

METARs EXPIRÉS :
  • 182155Z 24004KT 3000 BR NSC 14/13 Q1016 RMK SKC VIS MIN 3000 WIND THR11 24005KT WIND THR29 25003KT YLO
  • 182055Z 23005KT 3000 BR NSC 15/13 Q1016 RMK SKC VIS MIN 3000 WIND THR11 24003KT WIND THR29 25004KT YLO

TAF TAF LIPC
Valide du 19 à 00h jusqu'au 19 à 09h UTC


182300Z 1900/1909 11003KT 3000 BR NSC
TEMPO 1900/1907 1200 BR
PROB40
TEMPO 1900/1907 0600 BCFG SCT003
Pas de NOTAMs connus pour ce terrain.



MET'MAP, la Météo Aéronautique d'un coup d'oeil ! - Copyright ORBIFLY Décembre 2007 - Disclaimer

ORBIFLY MET'MAP TEAM :

Programmation & Développement : Alexandra Zaïnal
Conception & Développement : Baudouin d'Aumeries
Co-Programmation & Développement : Marc-Olivier Méhu
Soutien technique & logistique : Manuel Goepfert

Contact : metmap@orbifly.com




SOURCES & CREDITS :

   NOAA